Time;durP1;ratioP1;P1;durP2;ratioP2;P2;SDS_P1;SDS_P2;PMS_P1;PMS_P2;Temp;Humidity;BMP_temperature;BMP_pressure;BME280_temperature;BME280_humidity;BME280_pressure;Samples;Min_cycle;Max_cycle;Signal;HPM_P1;HPM_P2
2021/05/07 00:01:12;;;;;;;0.87;0.50;;;8.60;99.90;;;;;;5074500;28;20645;-71
2021/05/07 00:03:39;;;;;;;1.53;0.60;;;8.60;99.90;;;;;;5073790;28;20633;-71
2021/05/07 00:06:08;;;;;;;3.07;0.50;;;8.50;99.90;;;;;;5056530;28;20176;-74
2021/05/07 00:08:36;;;;;;;0.63;0.40;;;8.50;99.90;;;;;;5074164;28;20194;-72
2021/05/07 00:11:05;;;;;;;0.63;0.40;;;8.50;99.90;;;;;;5074400;28;20230;-71
2021/05/07 00:13:34;;;;;;;0.80;0.50;;;8.50;99.90;;;;;;5056379;28;20171;-71
2021/05/07 00:16:00;;;;;;;1.23;0.50;;;8.50;99.90;;;;;;5064350;28;20177;-72
2021/05/07 00:18:26;;;;;;;0.43;0.43;;;8.60;99.90;;;;;;5020276;28;20703;-73
2021/05/07 00:20:52;;;;;;;1.70;0.60;;;8.60;99.90;;;;;;5062190;28;20262;-71
2021/05/07 00:23:18;;;;;;;1.13;0.40;;;8.60;99.90;;;;;;5061326;28;20199;-73
2021/05/07 00:25:46;;;;;;;0.70;0.60;;;8.50;99.90;;;;;;5074055;28;20226;-73
2021/05/07 00:28:13;;;;;;;0.93;0.50;;;8.50;99.90;;;;;;5074000;28;20179;-72
2021/05/07 00:30:40;;;;;;;3.10;0.70;;;8.60;99.90;;;;;;5074030;28;20211;-73
2021/05/07 00:33:07;;;;;;;0.50;0.50;;;8.50;99.90;;;;;;5073912;28;20181;-72
2021/05/07 00:35:32;;;;;;;1.13;0.40;;;8.60;99.90;;;;;;5070213;28;20172;-72
2021/05/07 00:40:26;;;;;;;0.50;0.43;;;8.60;99.90;;;;;;5003163;28;20228;-74
2021/05/07 00:42:52;;;;;;;2.83;0.67;;;8.50;99.90;;;;;;5013892;28;20625;-72
2021/05/07 00:45:18;;;;;;;4.83;0.73;;;8.60;99.90;;;;;;5008301;28;20262;-72
2021/05/07 00:48:00;;;;;;;2.33;0.60;;;8.50;99.90;;;;;;5013905;28;20204;-71
2021/05/07 00:50:33;;;;;;;2.80;0.40;;;8.60;99.90;;;;;;5013807;28;20268;-71
2021/05/07 00:53:02;;;;;;;2.00;0.67;;;8.50;99.90;;;;;;4996300;28;20235;-72
2021/05/07 00:55:29;;;;;;;1.33;0.67;;;8.50;99.90;;;;;;5013874;28;20202;-71
2021/05/07 00:57:55;;;;;;;1.13;0.60;;;8.60;99.90;;;;;;4996079;28;20621;-73
2021/05/07 01:00:23;;;;;;;1.40;0.67;;;8.60;99.90;;;;;;5013606;28;20184;-74
2021/05/07 01:02:48;;;;;;;1.90;0.70;;;8.60;99.90;;;;;;5013686;28;20204;-74
2021/05/07 01:05:14;;;;;;;4.20;0.60;;;8.60;99.90;;;;;;5013603;28;20172;-74
2021/05/07 01:07:40;;;;;;;2.07;0.70;;;8.50;99.90;;;;;;5013531;28;20590;-74
2021/05/07 01:10:09;;;;;;;1.67;0.73;;;8.50;99.90;;;;;;5013534;28;20184;-71
2021/05/07 01:12:36;;;;;;;3.17;0.93;;;8.50;99.90;;;;;;5002009;28;20190;-71
2021/05/07 01:15:05;;;;;;;1.07;0.60;;;8.60;99.90;;;;;;5012551;28;20255;-72
2021/05/07 01:20:16;;;;;;;2.40;0.80;;;8.50;99.90;;;;;;5025567;28;20219;-71
2021/05/07 01:22:44;;;;;;;1.43;0.80;;;8.40;99.90;;;;;;5033160;28;20192;-73
2021/05/07 01:25:12;;;;;;;1.07;0.70;;;8.50;99.90;;;;;;5033106;28;20176;-74
2021/05/07 01:27:41;;;;;;;1.60;1.00;;;8.50;99.90;;;;;;5032820;28;20599;-74
2021/05/07 01:30:09;;;;;;;2.20;0.80;;;8.50;99.90;;;;;;5031712;28;20192;-71
2021/05/07 01:32:36;;;;;;;4.60;0.90;;;8.50;99.90;;;;;;5033285;28;20666;-69
2021/05/07 01:35:06;;;;;;;2.53;0.83;;;8.40;99.90;;;;;;5032263;28;20201;-74
2021/05/07 01:37:32;;;;;;;2.87;0.73;;;8.40;99.90;;;;;;5033199;28;20202;-74
2021/05/07 01:40:01;;;;;;;1.43;0.83;;;8.40;99.90;;;;;;5031592;28;20542;-71
2021/05/07 01:42:27;;;;;;;1.43;0.60;;;8.40;99.90;;;;;;5029829;28;20200;-71
2021/05/07 01:44:53;;;;;;;1.00;0.60;;;8.50;99.90;;;;;;5031490;28;20183;-71
2021/05/07 01:49:52;;;;;;;3.90;0.70;;;8.60;99.90;;;;;;5051089;28;20230;-71
2021/05/07 01:52:18;;;;;;;1.90;0.60;;;8.60;99.90;;;;;;5034716;28;20181;-69
2021/05/07 01:54:43;;;;;;;1.80;0.70;;;8.60;99.90;;;;;;5052545;28;20183;-72
2021/05/07 01:59:44;;;;;;;1.30;0.80;;;8.50;99.90;;;;;;5080008;22;20255;-72
2021/05/07 02:02:10;;;;;;;0.97;0.70;;;8.60;99.90;;;;;;5050415;28;20234;-71
2021/05/07 02:04:36;;;;;;;1.67;0.70;;;8.50;99.90;;;;;;5066283;28;20218;-71
2021/05/07 02:07:02;;;;;;;1.60;0.87;;;8.60;99.90;;;;;;5071193;28;20219;-72
2021/05/07 02:09:27;;;;;;;1.80;0.60;;;8.70;99.90;;;;;;5072434;28;20178;-74
2021/05/07 02:11:53;;;;;;;4.93;1.17;;;8.70;99.90;;;;;;5054854;28;20203;-71
2021/05/07 02:14:22;;;;;;;1.47;0.70;;;8.60;99.90;;;;;;5071125;28;20236;-71
2021/05/07 02:16:47;;;;;;;1.50;0.83;;;8.50;99.90;;;;;;5070961;28;20159;-72
2021/05/07 02:19:13;;;;;;;1.80;0.87;;;8.50;99.90;;;;;;5070677;28;20183;-71
2021/05/07 02:21:38;;;;;;;3.33;0.90;;;8.40;99.90;;;;;;5072292;28;20177;-71
2021/05/07 02:24:04;;;;;;;1.33;0.87;;;8.40;99.90;;;;;;5072070;28;20277;-72
2021/05/07 02:26:30;;;;;;;1.73;1.10;;;8.40;99.90;;;;;;5074052;28;20177;-71
2021/05/07 02:28:56;;;;;;;2.70;0.90;;;8.30;99.90;;;;;;5078677;28;20192;-74
2021/05/07 02:31:21;;;;;;;1.20;0.80;;;8.30;99.90;;;;;;5078788;28;20614;-72
2021/05/07 02:33:47;;;;;;;4.30;1.20;;;8.20;99.90;;;;;;5077954;28;20166;-71
2021/05/07 02:36:13;;;;;;;1.60;1.00;;;8.20;99.90;;;;;;5077464;28;20177;-71
2021/05/07 02:38:41;;;;;;;2.30;0.97;;;8.10;99.90;;;;;;5077321;28;20182;-71
2021/05/07 02:41:07;;;;;;;3.77;0.90;;;8.10;99.90;;;;;;5078517;28;20633;-71
2021/05/07 02:43:33;;;;;;;2.30;0.70;;;8.20;99.90;;;;;;5077407;28;20182;-71
2021/05/07 02:45:58;;;;;;;2.60;0.80;;;8.20;99.90;;;;;;5073178;28;20502;-69
2021/05/07 02:48:24;;;;;;;1.47;0.70;;;8.20;99.90;;;;;;5073144;22;20239;-74
2021/05/07 02:50:50;;;;;;;2.20;1.10;;;8.20;99.90;;;;;;5078591;28;20221;-72
2021/05/07 02:53:16;;;;;;;1.73;0.50;;;8.20;99.90;;;;;;5077340;28;20552;-73
2021/05/07 02:55:42;;;;;;;0.87;0.70;;;8.20;99.90;;;;;;5078577;28;20173;-72
2021/05/07 02:58:07;;;;;;;2.47;0.57;;;8.20;99.90;;;;;;5076917;28;20200;-71
2021/05/07 03:00:33;;;;;;;0.93;0.60;;;8.20;99.90;;;;;;5078745;28;20178;-72
2021/05/07 03:02:59;;;;;;;2.00;0.67;;;8.10;99.90;;;;;;5078732;28;20232;-71
2021/05/07 03:05:24;;;;;;;1.70;0.80;;;8.10;99.90;;;;;;5078591;28;20174;-72
2021/05/07 03:07:50;;;;;;;1.07;0.60;;;8.10;99.90;;;;;;5077044;28;20193;-76
2021/05/07 03:10:16;;;;;;;1.37;0.63;;;8.10;99.90;;;;;;5076748;28;20225;-74
2021/05/07 03:12:42;;;;;;;3.03;0.70;;;8.10;99.90;;;;;;5062755;28;20183;-74
2021/05/07 03:15:08;;;;;;;2.73;1.40;;;8.20;99.90;;;;;;5078362;28;20619;-71
2021/05/07 03:17:36;;;;;;;2.57;1.33;;;8.20;99.90;;;;;;5185101;22;20531;-75
2021/05/07 03:20:03;;;;;;;1.40;0.80;;;8.10;99.90;;;;;;5094207;28;20239;-73
2021/05/07 03:22:28;;;;;;;1.53;0.93;;;8.10;99.90;;;;;;5097164;28;20198;-69
2021/05/07 03:24:54;;;;;;;1.27;0.70;;;8.10;99.90;;;;;;5098558;28;20196;-74
2021/05/07 03:27:20;;;;;;;1.67;0.80;;;8.10;99.90;;;;;;5097380;28;20251;-72
2021/05/07 03:29:46;;;;;;;1.00;0.50;;;8.00;99.90;;;;;;5097438;28;20172;-72
2021/05/07 03:32:11;;;;;;;2.10;0.63;;;8.00;99.90;;;;;;5097125;28;20541;-71
2021/05/07 03:34:37;;;;;;;1.23;0.80;;;7.90;99.90;;;;;;5097547;28;20542;-71
2021/05/07 03:37:03;;;;;;;4.03;0.60;;;7.90;99.90;;;;;;5098382;28;20173;-71
2021/05/07 03:39:28;;;;;;;1.13;0.43;;;7.90;99.90;;;;;;5094515;28;20541;-74
2021/05/07 03:41:54;;;;;;;1.60;0.40;;;7.90;99.90;;;;;;5095271;28;20177;-75
2021/05/07 03:44:26;;;;;;;0.83;0.47;;;7.90;99.90;;;;;;5081406;28;20167;-72
2021/05/07 03:46:51;;;;;;;1.17;0.53;;;7.90;99.90;;;;;;5075012;28;20173;-71
2021/05/07 03:49:17;;;;;;;0.70;0.43;;;8.00;99.90;;;;;;5073393;28;20185;-71
2021/05/07 03:51:42;;;;;;;1.13;0.50;;;7.90;99.90;;;;;;5074938;28;20623;-69
2021/05/07 03:54:11;;;;;;;1.47;0.30;;;7.80;99.90;;;;;;5073626;28;20171;-71
2021/05/07 03:56:40;;;;;;;0.47;0.43;;;7.80;99.90;;;;;;5075056;28;20281;-72
2021/05/07 03:59:06;;;;;;;0.77;0.40;;;7.70;99.90;;;;;;5072897;28;20200;-74
2021/05/07 04:01:31;;;;;;;3.33;0.60;;;7.70;99.90;;;;;;5069099;28;20181;-73
2021/05/07 04:03:57;;;;;;;1.10;0.40;;;7.70;99.90;;;;;;5073495;28;20280;-73
2021/05/07 04:06:23;;;;;;;1.37;0.50;;;7.70;99.90;;;;;;5073384;28;20172;-71
2021/05/07 04:09:00;;;;;;;1.23;0.40;;;7.60;99.90;;;;;;5073325;28;20190;-74
2021/05/07 04:11:49;;;;;;;0.27;0.20;;;7.70;99.90;;;;;;5071706;28;20172;-74
2021/05/07 04:14:16;;;;;;;1.77;0.40;;;7.70;99.90;;;;;;5074849;28;20174;-71
2021/05/07 04:16:42;;;;;;;0.70;0.50;;;7.60;99.90;;;;;;5073002;28;20219;-73
2021/05/07 04:19:11;;;;;;;1.67;0.50;;;7.70;99.90;;;;;;5106477;22;20222;-72
2021/05/07 04:22:17;;;;;;;0.87;0.30;;;7.60;99.90;;;;;;5069608;28;20257;-71
2021/05/07 04:24:43;;;;;;;1.27;0.40;;;7.70;99.90;;;;;;5071608;28;20256;-72
2021/05/07 04:27:10;;;;;;;1.63;0.40;;;7.60;99.90;;;;;;5072676;28;20989;-72
2021/05/07 04:29:36;;;;;;;1.07;0.70;;;7.60;99.90;;;;;;5074159;28;20178;-74
2021/05/07 04:32:01;;;;;;;1.10;0.40;;;7.60;99.90;;;;;;5048230;28;20179;-71
2021/05/07 04:34:27;;;;;;;0.87;0.60;;;7.60;99.90;;;;;;5048595;28;20213;-71
2021/05/07 04:36:53;;;;;;;1.27;0.60;;;7.50;99.90;;;;;;5038696;28;20170;-71
2021/05/07 04:39:20;;;;;;;2.80;0.50;;;7.50;99.90;;;;;;5160412;22;20210;-74
2021/05/07 04:41:48;;;;;;;1.23;0.57;;;7.50;99.90;;;;;;5053564;28;20166;-72
2021/05/07 04:44:14;;;;;;;1.77;0.60;;;7.50;99.90;;;;;;5053781;28;20735;-72
2021/05/07 04:46:40;;;;;;;3.97;0.70;;;7.50;99.90;;;;;;5053875;28;20170;-72
2021/05/07 04:49:05;;;;;;;3.97;1.00;;;7.60;99.90;;;;;;5013167;28;20207;-74
2021/05/07 04:51:31;;;;;;;2.13;0.90;;;7.60;99.90;;;;;;5014469;28;20178;-73
2021/05/07 04:53:59;;;;;;;2.20;0.90;;;7.70;99.90;;;;;;4999935;28;20273;-74
2021/05/07 04:56:25;;;;;;;2.97;0.80;;;7.80;99.90;;;;;;5019579;28;20179;-72
2021/05/07 04:58:51;;;;;;;4.30;1.10;;;7.90;99.90;;;;;;5050346;28;20194;-73
2021/05/07 05:01:17;;;;;;;2.63;0.80;;;7.80;99.90;;;;;;5036007;28;20206;-70
2021/05/07 05:03:43;;;;;;;4.60;1.00;;;7.80;99.90;;;;;;5034718;28;20213;-72
2021/05/07 05:06:08;;;;;;;4.50;1.30;;;7.80;99.90;;;;;;5024092;28;20239;-71
2021/05/07 05:08:34;;;;;;;2.67;1.37;;;7.80;99.90;;;;;;5035379;28;20194;-71
2021/05/07 05:11:01;;;;;;;6.20;1.57;;;7.80;99.90;;;;;;5028462;28;20262;-72
2021/05/07 05:13:27;;;;;;;7.47;1.87;;;7.80;99.90;;;;;;5051518;28;20170;-71
2021/05/07 05:15:54;;;;;;;4.30;1.50;;;7.80;99.90;;;;;;5045282;28;20183;-72
2021/05/07 05:18:27;;;;;;;6.33;2.17;;;7.80;99.90;;;;;;5016310;28;20212;-71
2021/05/07 05:20:59;;;;;;;5.33;1.60;;;7.90;99.90;;;;;;5053184;28;20177;-71
2021/05/07 05:23:26;;;;;;;10.17;1.77;;;7.90;99.90;;;;;;5033659;28;20198;-75
2021/05/07 05:25:52;;;;;;;8.67;2.13;;;8.00;99.90;;;;;;5051572;28;20205;-72
2021/05/07 05:28:18;;;;;;;6.80;1.77;;;8.00;99.90;;;;;;5043996;28;20234;-72
2021/05/07 05:30:44;;;;;;;7.07;2.00;;;8.00;99.90;;;;;;5046291;28;20668;-71
2021/05/07 05:33:10;;;;;;;8.60;1.90;;;8.00;99.90;;;;;;5034870;28;20206;-75
2021/05/07 05:35:36;;;;;;;6.43;1.70;;;8.10;99.90;;;;;;5052709;28;20178;-75
2021/05/07 05:38:02;;;;;;;6.10;1.80;;;8.10;99.90;;;;;;5052558;28;20217;-74
2021/05/07 05:40:28;;;;;;;6.57;2.00;;;8.20;99.90;;;;;;5052678;28;20181;-74
2021/05/07 05:42:54;;;;;;;8.23;1.93;;;8.30;99.90;;;;;;5051998;28;20281;-74
2021/05/07 05:45:22;;;;;;;8.63;1.73;;;8.40;99.90;;;;;;5032862;28;20644;-73
2021/05/07 05:47:47;;;;;;;5.53;1.70;;;8.40;99.90;;;;;;5036628;28;20201;-73
2021/05/07 05:50:13;;;;;;;3.33;1.53;;;8.40;99.90;;;;;;5037843;28;20231;-74
2021/05/07 05:52:39;;;;;;;3.97;1.50;;;8.40;99.90;;;;;;5035288;28;20728;-73
2021/05/07 05:55:06;;;;;;;9.47;2.03;;;8.40;99.90;;;;;;5031917;28;20247;-73
2021/05/07 05:57:33;;;;;;;6.07;1.70;;;8.40;99.90;;;;;;5034143;28;20672;-74
2021/05/07 05:59:59;;;;;;;6.77;1.80;;;8.40;99.90;;;;;;5048163;28;20667;-75
2021/05/07 06:02:24;;;;;;;3.57;1.70;;;8.40;99.90;;;;;;5043900;28;20272;-75
2021/05/07 06:04:50;;;;;;;5.10;1.50;;;8.50;99.90;;;;;;5019648;28;20167;-74
2021/05/07 06:07:16;;;;;;;5.53;1.67;;;8.60;99.90;;;;;;5048863;28;20688;-74
2021/05/07 06:09:41;;;;;;;5.97;1.53;;;8.60;99.90;;;;;;5052235;28;20174;-75
2021/05/07 06:12:07;;;;;;;4.40;1.30;;;8.60;99.90;;;;;;5037436;28;20190;-74
2021/05/07 06:14:34;;;;;;;6.90;1.43;;;8.60;99.90;;;;;;5046457;28;20167;-74
2021/05/07 06:16:59;;;;;;;5.03;1.50;;;8.70;99.90;;;;;;5053220;28;20175;-74
2021/05/07 06:19:26;;;;;;;4.80;1.90;;;8.60;99.90;;;;;;5044925;28;20185;-74
2021/05/07 06:21:52;;;;;;;5.63;1.93;;;8.60;99.90;;;;;;5048705;28;20183;-75
2021/05/07 06:24:17;;;;;;;4.00;1.77;;;8.60;99.90;;;;;;5035278;28;20732;-74
2021/05/07 06:26:43;;;;;;;5.90;1.80;;;8.60;99.90;;;;;;5034115;28;20204;-73
2021/05/07 06:29:09;;;;;;;6.03;1.77;;;8.60;99.90;;;;;;5033578;28;20882;-74
2021/05/07 06:31:34;;;;;;;3.63;1.60;;;8.60;99.90;;;;;;5038414;28;20788;-75
2021/05/07 06:34:00;;;;;;;10.43;2.10;;;8.60;99.90;;;;;;5047621;28;20180;-74
2021/05/07 06:36:28;;;;;;;5.40;2.23;;;8.60;99.90;;;;;;5034194;28;20166;-77
2021/05/07 06:38:53;;;;;;;2.27;1.20;;;8.60;99.90;;;;;;5051805;28;20192;-74
2021/05/07 06:41:21;;;;;;;2.87;1.10;;;8.50;99.90;;;;;;5051936;28;20184;-74
2021/05/07 06:43:47;;;;;;;0.70;0.50;;;8.50;99.90;;;;;;5051852;28;20194;-74
2021/05/07 06:46:13;;;;;;;2.73;0.67;;;8.40;99.90;;;;;;5021588;28;20181;-73
2021/05/07 06:48:40;;;;;;;1.33;0.50;;;8.30;99.90;;;;;;5046911;28;20187;-73
2021/05/07 06:51:06;;;;;;;1.17;0.60;;;8.20;99.90;;;;;;5044739;28;20542;-73
2021/05/07 06:53:32;;;;;;;0.83;0.60;;;8.10;99.90;;;;;;5020943;28;20178;-75
2021/05/07 06:55:57;;;;;;;1.07;0.63;;;8.20;99.90;;;;;;5041420;28;20186;-73
2021/05/07 06:58:23;;;;;;;2.00;0.53;;;8.10;99.90;;;;;;5046871;28;20222;-74
2021/05/07 07:00:49;;;;;;;0.80;0.80;;;7.90;99.90;;;;;;5044114;28;20187;-75
2021/05/07 07:03:14;;;;;;;0.90;0.30;;;7.90;99.90;;;;;;5035460;28;20299;-74
2021/05/07 07:05:40;;;;;;;1.70;0.40;;;8.10;99.90;;;;;;5013953;28;20179;-75
2021/05/07 07:08:06;;;;;;;0.30;0.23;;;8.00;99.90;;;;;;5042369;28;20539;-76
2021/05/07 07:10:31;;;;;;;1.70;0.50;;;7.90;99.90;;;;;;5032237;28;20187;-76
2021/05/07 07:12:57;;;;;;;0.30;0.20;;;7.80;99.90;;;;;;5032263;28;20232;-76
2021/05/07 07:15:22;;;;;;;0.20;0.20;;;7.90;99.90;;;;;;5050966;28;20178;-74
2021/05/07 07:17:48;;;;;;;0.87;0.30;;;7.90;99.90;;;;;;5047364;28;20197;-74
2021/05/07 07:20:14;;;;;;;0.10;0.10;;;8.00;99.90;;;;;;5055370;28;20551;-75
2021/05/07 07:22:40;;;;;;;0.10;0.10;;;8.00;99.90;;;;;;5055245;28;20199;-73
2021/05/07 07:25:06;;;;;;;0.30;0.20;;;8.00;99.90;;;;;;5039754;28;20172;-74
2021/05/07 07:27:31;;;;;;;0.50;0.20;;;7.90;99.90;;;;;;5036854;28;20661;-73
2021/05/07 07:29:57;;;;;;;0.20;0.20;;;7.90;99.90;;;;;;5031980;28;20178;-75
2021/05/07 07:32:23;;;;;;;0.30;0.30;;;7.90;99.90;;;;;;5033445;28;20177;-74
2021/05/07 07:34:48;;;;;;;4.37;0.50;;;7.80;99.90;;;;;;5035230;28;20649;-73
2021/05/07 07:37:14;;;;;;;0.43;0.30;;;7.80;99.90;;;;;;5041740;28;20203;-74
2021/05/07 07:39:40;;;;;;;0.60;0.33;;;7.90;99.90;;;;;;5043039;28;20233;-74
2021/05/07 07:42:05;;;;;;;0.20;0.20;;;7.80;99.90;;;;;;5043096;28;20188;-78
2021/05/07 07:44:31;;;;;;;0.70;0.40;;;7.80;99.90;;;;;;5057628;28;20170;-79
2021/05/07 07:46:57;;;;;;;0.80;0.50;;;7.80;99.90;;;;;;5038543;28;20182;-78
2021/05/07 07:49:22;;;;;;;0.60;0.50;;;7.80;99.90;;;;;;5039856;28;20602;-78
2021/05/07 07:51:48;;;;;;;0.97;0.40;;;7.90;99.90;;;;;;5043214;28;20180;-77
2021/05/07 07:54:14;;;;;;;0.30;0.30;;;7.90;99.90;;;;;;5049038;28;20278;-75
2021/05/07 07:56:40;;;;;;;0.20;0.20;;;7.80;99.90;;;;;;5038898;28;20175;-78
2021/05/07 07:59:06;;;;;;;0.30;0.30;;;7.70;99.90;;;;;;5058437;28;20544;-78
2021/05/07 08:01:32;;;;;;;0.40;0.20;;;7.80;99.90;;;;;;5056096;28;20270;-78
2021/05/07 08:03:58;;;;;;;0.37;0.30;;;7.90;99.90;;;;;;5041100;28;20651;-78
2021/05/07 08:06:23;;;;;;;0.67;0.20;;;7.90;99.90;;;;;;5027525;28;20177;-78
2021/05/07 08:08:50;;;;;;;0.33;0.20;;;7.90;99.90;;;;;;5057393;28;20252;-78
2021/05/07 08:11:15;;;;;;;0.20;0.20;;;7.80;99.90;;;;;;5044269;28;20196;-78
2021/05/07 08:13:41;;;;;;;0.30;0.30;;;7.90;99.90;;;;;;5044866;28;20186;-79
2021/05/07 08:16:07;;;;;;;0.27;0.20;;;7.90;99.90;;;;;;5040160;28;20179;-78
2021/05/07 08:18:32;;;;;;;0.40;0.40;;;7.90;99.90;;;;;;5046381;28;20211;-78
2021/05/07 08:20:58;;;;;;;1.00;0.30;;;8.00;99.90;;;;;;5040168;28;20196;-78
2021/05/07 08:23:24;;;;;;;0.30;0.30;;;8.10;99.90;;;;;;5041211;28;20791;-78
2021/05/07 08:25:49;;;;;;;0.30;0.30;;;8.20;99.90;;;;;;5040567;28;20543;-78
2021/05/07 08:28:15;;;;;;;0.70;0.53;;;8.30;99.90;;;;;;5036895;28;20188;-79
2021/05/07 08:30:41;;;;;;;0.30;0.30;;;8.40;99.90;;;;;;5036346;28;20518;-78
2021/05/07 08:33:06;;;;;;;0.40;0.30;;;8.30;99.90;;;;;;5057828;28;20170;-78
2021/05/07 08:35:32;;;;;;;0.30;0.30;;;8.30;99.90;;;;;;5058235;28;20181;-79
2021/05/07 08:38:00;;;;;;;0.20;0.20;;;8.40;99.90;;;;;;5056254;28;20191;-79
2021/05/07 08:40:26;;;;;;;1.17;0.23;;;8.50;99.90;;;;;;5057743;28;20190;-79
2021/05/07 08:42:54;;;;;;;0.53;0.20;;;8.50;99.90;;;;;;5041030;28;20201;-79
2021/05/07 08:45:20;;;;;;;0.10;0.10;;;8.50;99.90;;;;;;5054804;28;20178;-79
2021/05/07 08:47:45;;;;;;;0.10;0.10;;;8.50;99.90;;;;;;5051689;28;20198;-78
2021/05/07 08:50:11;;;;;;;0.10;0.10;;;8.40;99.90;;;;;;5042752;28;20189;-78
2021/05/07 08:52:37;;;;;;;0.43;0.30;;;8.50;99.90;;;;;;5039117;28;20197;-78
2021/05/07 08:55:05;;;;;;;0.60;0.50;;;8.60;99.90;;;;;;5064105;28;20180;-78
2021/05/07 08:57:31;;;;;;;0.33;0.33;;;8.60;99.90;;;;;;5065245;28;20261;-78
2021/05/07 08:59:57;;;;;;;0.30;0.30;;;8.50;99.90;;;;;;5066599;28;20176;-78
2021/05/07 09:02:28;;;;;;;0.30;0.30;;;8.40;99.90;;;;;;5018023;28;20209;-78
2021/05/07 09:04:55;;;;;;;0.30;0.30;;;8.50;99.90;;;;;;5034542;28;20643;-78
2021/05/07 09:07:21;;;;;;;0.27;0.20;;;8.50;99.90;;;;;;5042963;28;20184;-76
2021/05/07 09:09:53;;;;;;;0.47;0.40;;;8.60;99.90;;;;;;5015803;28;20174;-78
2021/05/07 09:12:27;;;;;;;0.20;0.20;;;8.70;99.90;;;;;;5040361;28;20175;-78
2021/05/07 09:14:53;;;;;;;0.20;0.20;;;8.70;99.90;;;;;;5013456;28;20176;-78
2021/05/07 09:17:24;;;;;;;0.20;0.20;;;8.70;99.90;;;;;;5017043;28;20523;-77
2021/05/07 09:20:02;;;;;;;0.43;0.30;;;8.70;99.90;;;;;;5038159;28;20181;-78
2021/05/07 09:22:27;;;;;;;0.30;0.30;;;8.70;99.90;;;;;;5043133;28;20275;-78
2021/05/07 09:25:10;;;;;;;0.23;0.23;;;8.80;99.90;;;;;;5039507;28;20184;-79
2021/05/07 09:27:36;;;;;;;0.73;0.70;;;8.90;99.90;;;;;;5048247;28;20223;-74
2021/05/07 09:30:06;;;;;;;0.30;0.30;;;8.90;99.90;;;;;;5052921;28;20268;-74
2021/05/07 09:32:33;;;;;;;0.40;0.40;;;8.90;99.90;;;;;;5045318;28;20665;-74
2021/05/07 09:35:12;;;;;;;1.00;0.60;;;9.00;99.90;;;;;;5044767;28;20544;-74
2021/05/07 09:37:44;;;;;;;0.73;0.60;;;9.10;99.90;;;;;;5049463;28;20190;-74
2021/05/07 09:40:16;;;;;;;0.83;0.60;;;9.10;99.90;;;;;;5044579;28;20191;-74
2021/05/07 09:42:42;;;;;;;0.60;0.50;;;9.20;99.90;;;;;;5018478;28;20198;-74
2021/05/07 09:45:25;;;;;;;0.97;0.60;;;9.30;99.90;;;;;;5014535;28;20177;-74
2021/05/07 09:47:52;;;;;;;1.23;0.70;;;9.30;99.90;;;;;;5016517;28;20195;-77
2021/05/07 09:50:20;;;;;;;0.70;0.63;;;9.20;99.90;;;;;;5038545;28;20202;-74
2021/05/07 09:52:51;;;;;;;1.03;0.93;;;9.20;99.90;;;;;;5033625;28;20555;-74
2021/05/07 09:55:18;;;;;;;1.07;1.00;;;9.20;99.90;;;;;;5036035;28;20176;-74
2021/05/07 09:57:44;;;;;;;1.00;1.00;;;9.20;99.90;;;;;;5045656;28;20329;-74
2021/05/07 10:00:11;;;;;;;0.70;0.67;;;9.10;99.90;;;;;;5015889;28;20182;-74
2021/05/07 10:02:37;;;;;;;3.87;1.10;;;9.00;99.90;;;;;;5028546;28;20545;-75
2021/05/07 10:05:03;;;;;;;1.17;0.80;;;9.00;99.90;;;;;;5034483;28;20184;-75
2021/05/07 10:07:30;;;;;;;1.30;1.20;;;9.00;99.90;;;;;;5043646;28;20200;-74
2021/05/07 10:10:06;;;;;;;1.20;1.10;;;9.00;99.90;;;;;;5034348;28;20166;-75
2021/05/07 10:12:35;;;;;;;0.70;0.70;;;9.10;99.90;;;;;;5043629;28;20185;-74
2021/05/07 10:15:02;;;;;;;0.93;0.90;;;9.10;99.90;;;;;;5049196;28;20213;-75
2021/05/07 10:17:28;;;;;;;0.80;0.80;;;9.10;99.90;;;;;;5052282;28;20353;-75
2021/05/07 10:19:53;;;;;;;0.80;0.80;;;9.10;99.90;;;;;;5032530;28;20728;-74
2021/05/07 10:22:25;;;;;;;1.27;0.93;;;9.00;99.90;;;;;;5052062;28;20183;-74
2021/05/07 10:24:51;;;;;;;1.73;1.00;;;9.00;99.90;;;;;;5034110;28;20231;-75
2021/05/07 10:27:19;;;;;;;1.17;1.07;;;9.00;99.90;;;;;;5029534;28;20207;-74
2021/05/07 10:29:56;;;;;;;1.13;1.03;;;8.80;99.90;;;;;;5030771;28;20243;-75
2021/05/07 10:32:36;;;;;;;1.40;1.07;;;8.80;99.90;;;;;;5013238;28;20198;-75
2021/05/07 10:35:07;;;;;;;1.23;1.13;;;8.90;99.90;;;;;;5031475;28;20180;-74
2021/05/07 10:37:42;;;;;;;1.50;1.20;;;8.90;99.90;;;;;;5033556;28;20205;-75
2021/05/07 10:40:10;;;;;;;1.10;1.07;;;8.90;99.90;;;;;;5035289;28;20581;-75
2021/05/07 10:42:36;;;;;;;2.40;1.37;;;8.80;99.90;;;;;;5038837;28;20194;-75
2021/05/07 10:45:02;;;;;;;1.40;1.30;;;8.70;99.90;;;;;;5051840;28;20170;-74
2021/05/07 10:47:36;;;;;;;1.57;1.47;;;8.80;99.90;;;;;;5050590;28;20288;-73
2021/05/07 10:50:15;;;;;;;1.70;1.60;;;8.70;99.90;;;;;;5034575;28;20204;-75
2021/05/07 10:52:41;;;;;;;1.67;1.50;;;8.90;99.90;;;;;;5051271;28;20176;-72
2021/05/07 10:55:08;;;;;;;2.07;1.87;;;8.90;99.90;;;;;;5055812;28;20173;-74
2021/05/07 10:57:37;;;;;;;2.27;1.20;;;8.90;99.90;;;;;;5055684;28;20223;-73
2021/05/07 11:00:07;;;;;;;1.47;1.37;;;8.90;99.90;;;;;;5028418;28;20195;-74
2021/05/07 11:02:44;;;;;;;1.70;1.60;;;8.80;99.90;;;;;;5055601;28;20202;-73
2021/05/07 11:05:11;;;;;;;1.50;1.40;;;8.80;99.90;;;;;;5055674;28;20618;-74
2021/05/07 11:07:37;;;;;;;2.20;1.23;;;8.80;99.90;;;;;;5055498;28;20195;-75
2021/05/07 11:10:08;;;;;;;2.03;1.47;;;8.90;99.90;;;;;;5053827;28;20175;-73
2021/05/07 11:12:37;;;;;;;2.23;1.50;;;9.00;99.90;;;;;;5032655;28;20543;-73
2021/05/07 11:15:05;;;;;;;3.43;1.90;;;9.20;99.90;;;;;;5049964;28;20168;-74
2021/05/07 11:17:30;;;;;;;1.67;1.57;;;9.30;99.90;;;;;;5018334;28;20202;-74
2021/05/07 11:19:56;;;;;;;1.50;1.37;;;9.40;99.90;;;;;;5017223;28;20259;-74
2021/05/07 11:22:26;;;;;;;1.60;1.50;;;9.50;99.90;;;;;;5024383;28;20237;-74
2021/05/07 11:24:52;;;;;;;2.60;2.40;;;9.50;99.90;;;;;;5035845;28;20180;-74
2021/05/07 11:27:27;;;;;;;1.83;1.73;;;9.70;99.90;;;;;;5033608;28;20253;-74
2021/05/07 11:30:04;;;;;;;2.33;1.70;;;9.90;99.90;;;;;;5028481;28;20207;-74
2021/05/07 11:32:30;;;;;;;1.90;1.80;;;10.20;99.90;;;;;;5032643;28;20237;-74
2021/05/07 11:35:00;;;;;;;2.03;1.40;;;10.40;99.90;;;;;;5010432;28;20527;-74
2021/05/07 11:37:28;;;;;;;2.80;1.50;;;10.50;99.90;;;;;;5032026;28;20202;-75
2021/05/07 11:40:15;;;;;;;1.67;1.40;;;10.50;99.90;;;;;;5027285;28;20201;-75
2021/05/07 11:42:43;;;;;;;3.00;1.93;;;10.70;99.90;;;;;;5030541;28;20198;-75
2021/05/07 11:45:10;;;;;;;1.63;1.50;;;11.00;99.90;;;;;;5029694;28;20226;-73
2021/05/07 11:47:38;;;;;;;2.63;1.50;;;11.20;99.90;;;;;;5030828;28;20618;-74
2021/05/07 11:50:08;;;;;;;2.00;1.63;;;11.30;99.90;;;;;;5031255;28;20181;-75
2021/05/07 11:52:35;;;;;;;2.30;1.63;;;11.50;99.90;;;;;;5023872;28;20266;-74
2021/05/07 11:55:01;;;;;;;1.87;1.70;;;11.50;99.90;;;;;;5029612;28;20172;-74
2021/05/07 11:57:30;;;;;;;1.73;1.33;;;11.70;99.90;;;;;;5035371;28;20213;-74
2021/05/07 11:59:56;;;;;;;3.80;1.37;;;11.90;99.90;;;;;;5034883;28;20227;-75
2021/05/07 12:02:27;;;;;;;2.33;1.27;;;12.10;99.90;;;;;;5029425;28;20265;-75
2021/05/07 12:04:55;;;;;;;3.23;1.20;;;12.20;99.90;;;;;;5010592;28;20173;-75
2021/05/07 12:07:27;;;;;;;1.20;1.10;;;12.20;99.90;;;;;;5026625;28;20568;-73
2021/05/07 12:09:53;;;;;;;1.23;1.13;;;12.20;99.90;;;;;;5030509;28;20202;-75
2021/05/07 12:12:19;;;;;;;2.20;1.10;;;12.30;99.90;;;;;;5026278;28;20208;-74
2021/05/07 12:14:48;;;;;;;1.40;1.30;;;12.40;99.90;;;;;;5014128;28;20213;-75
2021/05/07 12:17:18;;;;;;;1.57;1.40;;;12.50;99.90;;;;;;5028418;28;20178;-73
2021/05/07 12:20:07;;;;;;;1.47;1.20;;;;;;;;;;5032404;28;20246;-71
2021/05/07 12:22:33;;;;;;;1.60;1.23;;;12.80;99.90;;;;;;5033197;28;20198;-71
2021/05/07 12:25:19;;;;;;;2.07;1.87;;;12.80;99.90;;;;;;5045305;28;20162;-70
2021/05/07 12:27:47;;;;;;;1.63;1.52;;;12.90;99.90;;;;;;5020726;28;20408;-73
2021/05/07 12:30:20;;;;;;;1.50;1.37;;;13.00;99.90;;;;;;5035179;28;20541;-72
2021/05/07 12:33:07;;;;;;;2.20;1.10;;;13.10;99.90;;;;;;5044342;28;20259;-72
2021/05/07 12:35:45;;;;;;;1.23;1.10;;;13.30;99.90;;;;;;5047785;28;20191;-73
2021/05/07 12:38:23;;;;;;;1.70;1.60;;;13.30;99.90;;;;;;5053742;28;20201;-72
2021/05/07 12:41:00;;;;;;;1.60;1.30;;;13.30;99.90;;;;;;5034497;28;20674;-70
2021/05/07 12:43:36;;;;;;;1.50;1.07;;;13.50;99.90;;;;;;5042623;28;20189;-70
2021/05/07 12:46:03;;;;;;;1.53;1.43;;;13.50;99.90;;;;;;5035515;28;20258;-71
2021/05/07 12:48:29;;;;;;;1.00;0.90;;;13.70;99.90;;;;;;5043536;28;20219;-73
2021/05/07 12:50:55;;;;;;;2.47;1.27;;;13.70;99.90;;;;;;5041499;28;20668;-74
2021/05/07 12:53:23;;;;;;;0.97;0.93;;;13.90;99.90;;;;;;5040223;28;20177;-74
2021/05/07 12:55:50;;;;;;;0.97;0.70;;;14.00;99.90;;;;;;5053250;28;20230;-73
2021/05/07 12:58:16;;;;;;;1.33;1.00;;;14.00;99.90;;;;;;5053310;28;20281;-74
2021/05/07 13:00:42;;;;;;;1.60;1.00;;;14.10;99.90;;;;;;5053418;28;20261;-72
2021/05/07 13:03:17;;;;;;;2.20;1.00;;;14.20;99.90;;;;;;5053297;28;20724;-70
2021/05/07 13:05:43;;;;;;;1.43;1.10;;;14.20;99.90;;;;;;5053460;28;20165;-73
2021/05/07 13:08:08;;;;;;;1.00;1.00;;;14.40;99.90;;;;;;5035522;28;20562;-73